createdAt,value
2022-07-31T00:04:43.503Z,36.45
2022-07-31T00:09:53.043Z,36.14
2022-07-31T00:14:56.545Z,36.09
2022-07-31T00:19:58.687Z,36.36
2022-07-31T00:25:01.014Z,36.58
2022-07-31T00:30:03.229Z,36.60
2022-07-31T00:35:05.768Z,36.38
2022-07-31T00:40:09.237Z,36.51
2022-07-31T00:45:13.605Z,36.65
2022-07-31T00:50:15.891Z,36.22
2022-07-31T00:55:17.877Z,36.42
2022-07-31T01:00:20.031Z,36.20
2022-07-31T01:05:22.062Z,36.49
2022-07-31T01:10:38.942Z,36.26
2022-07-31T01:15:42.209Z,36.13
2022-07-31T01:20:46.330Z,35.86
2022-07-31T01:26:08.633Z,36.19
2022-07-31T01:31:29.627Z,36.04
2022-07-31T01:36:35.437Z,36.20
2022-07-31T01:41:43.264Z,36.01
2022-07-31T01:46:47.068Z,36.01
2022-07-31T01:51:50.271Z,36.00
2022-07-31T01:56:57.207Z,35.88
2022-07-31T02:02:00.120Z,35.87
2022-07-31T02:07:08.657Z,35.98
2022-07-31T02:12:12.848Z,35.80
2022-07-31T02:17:22.672Z,35.49
2022-07-31T02:22:25.491Z,35.81
2022-07-31T02:27:58.213Z,35.94
2022-07-31T02:32:54.077Z,35.87
2022-07-31T02:37:57.309Z,35.75
2022-07-31T02:43:00.185Z,35.91
2022-07-31T02:48:02.823Z,36.00
2022-07-31T02:53:04.939Z,36.02
2022-07-31T02:58:06.933Z,36.04
2022-07-31T03:03:09.101Z,35.77
2022-07-31T03:08:10.968Z,35.84
2022-07-31T03:13:14.328Z,36.02
2022-07-31T03:18:21.882Z,35.96
2022-07-31T03:23:26.040Z,35.79
2022-07-31T03:28:28.346Z,35.85
2022-07-31T03:33:30.469Z,35.79
2022-07-31T03:38:40.515Z,36.01
2022-07-31T03:43:47.797Z,35.86
2022-07-31T03:48:53.028Z,35.79
2022-07-31T03:53:55.520Z,35.94
2022-07-31T03:58:57.488Z,36.19
2022-07-31T04:04:01.317Z,35.99
2022-07-31T04:09:10.475Z,36.05
2022-07-31T04:14:20.955Z,35.98
2022-07-31T04:19:22.826Z,35.82
2022-07-31T04:24:24.857Z,35.98
2022-07-31T04:29:28.866Z,36.07
2022-07-31T04:34:31.012Z,35.91
2022-07-31T04:39:32.914Z,35.93
2022-07-31T04:44:34.976Z,36.06
2022-07-31T04:49:37.158Z,36.05
2022-07-31T04:54:39.287Z,36.11
2022-07-31T04:59:59.220Z,36.09
2022-07-31T05:05:03.580Z,36.18
2022-07-31T05:10:05.938Z,36.40
2022-07-31T05:15:08.384Z,36.42
2022-07-31T05:20:11.063Z,36.37
2022-07-31T05:25:12.754Z,36.74
2022-07-31T05:30:14.792Z,37.28
2022-07-31T05:35:16.645Z,37.25
2022-07-31T05:40:18.743Z,37.35
2022-07-31T05:45:20.633Z,37.73
2022-07-31T05:50:23.482Z,37.78
2022-07-31T05:55:25.724Z,37.74
2022-07-31T06:00:29.028Z,37.82
2022-07-31T06:05:32.348Z,37.68
2022-07-31T06:10:34.449Z,37.90
2022-07-31T06:15:36.958Z,37.54
2022-07-31T06:20:40.029Z,37.75
2022-07-31T06:25:42.128Z,38.05
2022-07-31T06:30:46.093Z,37.92
2022-07-31T06:35:48.030Z,38.14
2022-07-31T06:40:50.050Z,38.17
2022-07-31T06:45:52.717Z,38.27
2022-07-31T06:51:14.404Z,38.15
2022-07-31T06:56:16.674Z,38.17
2022-07-31T07:01:18.636Z,38.42
2022-07-31T07:06:20.597Z,38.40
2022-07-31T07:11:22.598Z,38.30
2022-07-31T07:16:24.609Z,38.76
2022-07-31T07:21:27.142Z,38.58
2022-07-31T07:26:29.005Z,38.64
2022-07-31T07:31:31.098Z,38.70
2022-07-31T07:36:33.901Z,38.59
2022-07-31T07:41:35.705Z,38.67
2022-07-31T07:46:37.661Z,38.83
2022-07-31T07:51:59.724Z,38.47
2022-07-31T07:57:01.693Z,38.60
2022-07-31T08:02:03.922Z,38.20
2022-07-31T08:07:06.142Z,38.54
2022-07-31T08:12:08.640Z,38.49
2022-07-31T08:17:13.682Z,38.35
2022-07-31T08:22:15.797Z,38.52
2022-07-31T08:27:39.685Z,38.40
2022-07-31T08:32:42.744Z,39.66
2022-07-31T08:37:51.662Z,40.61
2022-07-31T08:43:19.398Z,40.96
2022-07-31T08:48:28.670Z,41.65
2022-07-31T08:53:33.287Z,41.08
2022-07-31T08:58:39.318Z,40.76
2022-07-31T09:03:42.078Z,40.83
2022-07-31T09:08:44.157Z,40.39
2022-07-31T09:14:03.352Z,40.00
2022-07-31T09:19:52.619Z,39.46
2022-07-31T09:24:36.958Z,39.28
2022-07-31T09:29:43.264Z,41.01
2022-07-31T09:34:46.388Z,41.33
2022-07-31T09:39:57.235Z,41.55
2022-07-31T09:44:59.496Z,41.45
2022-07-31T09:50:03.810Z,42.22
2022-07-31T09:55:15.664Z,41.82
2022-07-31T10:00:19.094Z,42.03
2022-07-31T10:05:24.598Z,42.39
2022-07-31T10:10:27.104Z,42.13
2022-07-31T10:15:30.309Z,41.93
2022-07-31T10:20:34.408Z,41.89
2022-07-31T10:25:41.616Z,42.02
2022-07-31T10:30:56.483Z,41.80
2022-07-31T10:36:14.781Z,41.99
2022-07-31T10:41:37.048Z,42.15
2022-07-31T10:46:38.958Z,42.81
2022-07-31T10:51:48.783Z,42.31
2022-07-31T10:56:50.736Z,42.51
2022-07-31T11:01:55.270Z,42.15
2022-07-31T11:06:57.368Z,42.12
2022-07-31T11:11:59.321Z,41.92
2022-07-31T11:17:01.534Z,41.68
2022-07-31T11:22:31.968Z,41.71
2022-07-31T11:27:33.965Z,41.09
2022-07-31T11:32:36.207Z,41.17
2022-07-31T11:37:57.176Z,40.89
2022-07-31T11:48:27.566Z,40.82
2022-07-31T11:53:30.140Z,40.99
2022-07-31T11:58:32.314Z,40.70
2022-07-31T12:03:37.065Z,40.54
2022-07-31T12:08:40.374Z,40.54
2022-07-31T12:13:46.814Z,40.80
2022-07-31T12:18:58.735Z,40.55
2022-07-31T12:24:01.202Z,40.54
2022-07-31T12:29:09.949Z,40.74
2022-07-31T12:34:12.141Z,40.38
2022-07-31T12:39:14.013Z,40.61
2022-07-31T12:44:21.549Z,40.63
2022-07-31T12:49:24.570Z,40.33
2022-07-31T12:54:26.893Z,40.21
2022-07-31T12:59:29.039Z,40.38
2022-07-31T13:04:31.092Z,40.08
2022-07-31T13:09:33.211Z,40.30
2022-07-31T13:14:34.965Z,40.20
2022-07-31T13:19:36.978Z,40.23
2022-07-31T13:24:38.917Z,40.49
2022-07-31T13:29:41.080Z,40.46
2022-07-31T13:34:42.801Z,40.21
2022-07-31T13:39:44.670Z,40.71
2022-07-31T13:44:46.605Z,41.07
2022-07-31T13:49:48.737Z,41.43
2022-07-31T13:54:50.612Z,41.85
2022-07-31T13:59:52.581Z,41.86
2022-07-31T14:04:54.429Z,42.41
2022-07-31T14:09:57.014Z,41.80
2022-07-31T14:14:59.067Z,41.77
2022-07-31T14:20:01.154Z,42.09
2022-07-31T14:25:03.367Z,41.71
2022-07-31T14:30:09.679Z,41.80
2022-07-31T14:35:11.720Z,42.20
2022-07-31T14:40:14.551Z,41.72
2022-07-31T14:45:16.294Z,41.91
2022-07-31T14:50:19.666Z,41.86
2022-07-31T14:55:23.848Z,42.09
2022-07-31T15:00:26.300Z,41.93
2022-07-31T15:06:51.153Z,42.21
2022-07-31T15:10:50.099Z,42.36
2022-07-31T15:15:51.881Z,42.11
2022-07-31T15:20:54.523Z,42.39
2022-07-31T15:25:56.474Z,42.25
2022-07-31T15:31:01.205Z,42.19
2022-07-31T15:36:03.637Z,42.22
2022-07-31T15:41:05.921Z,41.95
2022-07-31T15:46:09.331Z,42.19
2022-07-31T15:51:11.792Z,42.23
2022-07-31T15:56:13.760Z,42.18
2022-07-31T16:01:15.669Z,42.36
2022-07-31T16:06:17.614Z,42.31
2022-07-31T16:11:20.459Z,42.00
2022-07-31T16:16:22.349Z,42.41
2022-07-31T16:21:24.092Z,42.25
2022-07-31T16:26:26.045Z,42.49
2022-07-31T16:31:29.790Z,42.23
2022-07-31T16:36:32.698Z,41.94
2022-07-31T16:41:34.742Z,41.50
2022-07-31T16:46:36.539Z,42.03
2022-07-31T16:51:38.737Z,41.67
2022-07-31T16:56:40.813Z,41.47
2022-07-31T17:01:58.006Z,41.83
2022-07-31T17:07:02.654Z,42.17
2022-07-31T17:12:05.515Z,42.09
2022-07-31T17:17:12.006Z,42.20
2022-07-31T17:22:17.992Z,42.61
2022-07-31T17:27:21.923Z,42.62
2022-07-31T17:32:24.017Z,42.25
2022-07-31T17:37:26.207Z,43.47
2022-07-31T17:42:28.345Z,42.89
2022-07-31T17:47:30.480Z,43.01
2022-07-31T17:52:32.621Z,42.26
2022-07-31T17:57:35.179Z,42.37
2022-07-31T18:02:37.150Z,42.42
2022-07-31T18:07:39.191Z,42.47
2022-07-31T18:12:57.237Z,42.12
2022-07-31T18:17:59.985Z,42.15
2022-07-31T18:23:02.328Z,42.14
2022-07-31T18:28:04.510Z,42.24
2022-07-31T18:33:06.626Z,42.01
2022-07-31T18:38:08.562Z,42.17
2022-07-31T18:43:11.318Z,41.86
2022-07-31T18:48:13.920Z,41.47
2022-07-31T18:53:16.722Z,41.89
2022-07-31T18:58:21.795Z,41.29
2022-07-31T19:03:25.822Z,41.15
2022-07-31T19:08:27.588Z,41.28
2022-07-31T19:13:29.534Z,41.23
2022-07-31T19:18:31.298Z,41.02
2022-07-31T19:23:38.072Z,41.01
2022-07-31T19:28:42.093Z,41.02
2022-07-31T19:33:44.451Z,40.94
2022-07-31T19:38:46.273Z,41.23
2022-07-31T19:43:50.196Z,40.98
2022-07-31T19:48:52.275Z,41.31
2022-07-31T19:53:54.314Z,41.45
2022-07-31T19:58:56.094Z,41.34
2022-07-31T20:03:58.044Z,41.00
2022-07-31T20:09:00.030Z,41.18
2022-07-31T20:14:01.831Z,41.12
2022-07-31T20:19:03.890Z,41.10
2022-07-31T20:24:06.336Z,41.12
2022-07-31T20:29:08.258Z,41.14
2022-07-31T20:34:10.279Z,41.11
2022-07-31T20:39:12.221Z,41.22
2022-07-31T20:44:14.394Z,41.28
2022-07-31T20:49:19.588Z,41.45
2022-07-31T20:54:37.541Z,41.31
2022-07-31T20:59:39.378Z,41.01
2022-07-31T21:04:41.411Z,41.01
2022-07-31T21:09:43.592Z,40.90
2022-07-31T21:14:45.751Z,41.05
2022-07-31T21:19:48.047Z,40.75
2022-07-31T21:24:50.493Z,41.11
2022-07-31T21:29:56.691Z,41.65
2022-07-31T21:34:59.423Z,41.44
2022-07-31T21:40:01.690Z,41.35
2022-07-31T21:45:04.585Z,41.21
2022-07-31T21:50:09.878Z,40.99
2022-07-31T21:55:12.040Z,41.04
2022-07-31T22:00:14.269Z,41.09
2022-07-31T22:05:34.918Z,41.43
2022-07-31T22:10:36.872Z,41.42
2022-07-31T22:15:59.269Z,41.73
2022-07-31T22:21:06.714Z,41.36
2022-07-31T22:26:08.772Z,41.14
2022-07-31T22:31:10.994Z,41.05
2022-07-31T22:36:13.448Z,41.16
2022-07-31T22:41:15.494Z,41.16
2022-07-31T22:46:17.556Z,40.92
2022-07-31T22:51:19.585Z,41.28
2022-07-31T22:56:21.711Z,41.13
2022-07-31T23:01:23.679Z,41.13
2022-07-31T23:06:30.822Z,41.30
2022-07-31T23:11:34.236Z,41.59
2022-07-31T23:16:36.407Z,41.62
2022-07-31T23:21:38.257Z,41.59
2022-07-31T23:26:40.564Z,42.01
2022-07-31T23:31:42.518Z,42.05
2022-07-31T23:36:45.390Z,42.20
2022-07-31T23:42:06.522Z,42.45
2022-07-31T23:47:09.100Z,43.29
2022-07-31T23:52:11.219Z,43.01
2022-07-31T23:57:13.264Z,43.28
